createdAt,value
2023-01-06T00:00:30.757Z,1010.81
2023-01-06T00:01:30.720Z,1010.80
2023-01-06T00:02:30.748Z,1010.79
2023-01-06T00:03:30.705Z,1010.80
2023-01-06T00:04:30.766Z,1010.79
2023-01-06T00:05:30.664Z,1010.78
2023-01-06T00:06:30.673Z,1010.78
2023-01-06T00:07:30.623Z,1010.70
2023-01-06T00:08:30.635Z,1010.78
2023-01-06T00:09:30.631Z,1010.79
2023-01-06T00:10:30.580Z,1010.82
2023-01-06T00:11:30.579Z,1010.83
2023-01-06T00:12:30.591Z,1010.83
2023-01-06T00:13:30.573Z,1010.77
2023-01-06T00:14:30.575Z,1010.83
2023-01-06T00:15:30.613Z,1010.85
2023-01-06T00:16:30.520Z,1010.85
2023-01-06T00:17:30.528Z,1010.81
2023-01-06T00:18:30.500Z,1010.81
2023-01-06T00:19:30.532Z,1010.82
2023-01-06T00:20:30.476Z,1010.76
2023-01-06T00:21:30.484Z,1010.79
2023-01-06T00:22:30.472Z,1010.78
2023-01-06T00:23:30.447Z,1010.77
2023-01-06T00:24:30.447Z,1010.75
2023-01-06T00:25:30.446Z,1010.68
2023-01-06T00:26:30.411Z,1010.66
2023-01-06T00:27:30.384Z,1010.63
2023-01-06T00:28:30.416Z,1010.57
2023-01-06T00:29:30.418Z,1010.60
2023-01-06T00:30:30.361Z,1010.62
2023-01-06T00:31:30.388Z,1010.54
2023-01-06T00:32:30.342Z,1010.55
2023-01-06T00:33:30.328Z,1010.61
2023-01-06T00:34:30.371Z,1010.60
2023-01-06T00:35:30.327Z,1010.57
2023-01-06T00:36:30.293Z,1010.52
2023-01-06T00:37:30.289Z,1010.54
2023-01-06T00:38:30.280Z,1010.52
2023-01-06T00:39:30.268Z,1010.50
2023-01-06T00:40:30.272Z,1010.45
2023-01-06T00:41:30.271Z,1010.46
2023-01-06T00:42:30.231Z,1010.51
2023-01-06T00:43:30.244Z,1010.50
2023-01-06T00:44:30.260Z,1010.49
2023-01-06T00:45:30.189Z,1010.47
2023-01-06T00:46:30.284Z,1010.50
2023-01-06T00:47:30.171Z,1010.40
2023-01-06T00:48:30.182Z,1010.43
2023-01-06T00:49:30.156Z,1010.41
2023-01-06T00:50:30.152Z,1010.42
2023-01-06T00:51:30.147Z,1010.43
2023-01-06T00:52:30.129Z,1010.42
2023-01-06T00:53:30.106Z,1010.39
2023-01-06T00:54:30.128Z,1010.45
2023-01-06T00:55:30.083Z,1010.44
2023-01-06T00:56:30.097Z,1010.41
2023-01-06T00:57:30.058Z,1010.35
2023-01-06T00:58:30.031Z,1010.43
2023-01-06T00:59:30.085Z,1010.43
2023-01-06T01:00:30.056Z,1010.42
2023-01-06T01:01:30.106Z,1010.40
2023-01-06T01:02:30.095Z,1010.43
2023-01-06T01:03:30.028Z,1010.42
2023-01-06T01:04:30.032Z,1010.44
2023-01-06T01:05:29.956Z,1010.34
2023-01-06T01:06:29.970Z,1010.41
2023-01-06T01:07:29.979Z,1010.40
2023-01-06T01:08:29.931Z,1010.37
2023-01-06T01:09:29.963Z,1010.37
2023-01-06T01:10:29.931Z,1010.34
2023-01-06T01:11:29.925Z,1010.35
2023-01-06T01:12:29.877Z,1010.36
2023-01-06T01:13:29.929Z,1010.35
2023-01-06T01:14:29.908Z,1010.38
2023-01-06T01:15:29.908Z,1010.40
2023-01-06T01:16:29.877Z,1010.44
2023-01-06T01:17:29.836Z,1010.39
2023-01-06T01:18:29.871Z,1010.38
2023-01-06T01:19:29.849Z,1010.37
2023-01-06T01:20:29.825Z,1010.36
2023-01-06T01:21:29.802Z,1010.34
2023-01-06T01:22:29.768Z,1010.33
2023-01-06T01:23:29.756Z,1010.32
2023-01-06T01:24:29.798Z,1010.31
2023-01-06T01:25:29.784Z,1010.29
2023-01-06T01:26:29.733Z,1010.31
2023-01-06T01:27:29.719Z,1010.35
2023-01-06T01:28:29.734Z,1010.36
2023-01-06T01:29:29.701Z,1010.37
2023-01-06T01:30:29.724Z,1010.36
2023-01-06T01:31:30.623Z,1010.39
2023-01-06T01:32:29.752Z,1010.35
2023-01-06T01:33:29.670Z,1010.32
2023-01-06T01:34:30.169Z,1010.33
2023-01-06T01:35:29.677Z,1010.36
2023-01-06T01:36:29.681Z,1010.35
2023-01-06T01:37:29.618Z,1010.30
2023-01-06T01:38:29.654Z,1010.37
2023-01-06T01:39:29.763Z,1010.32
2023-01-06T01:40:29.749Z,1010.32
2023-01-06T01:41:29.608Z,1010.31
2023-01-06T01:42:29.662Z,1010.32
2023-01-06T01:43:29.587Z,1010.32
2023-01-06T01:44:29.541Z,1010.33
2023-01-06T01:45:29.600Z,1010.37
2023-01-06T01:46:29.725Z,1010.35
2023-01-06T01:47:29.529Z,1010.34
2023-01-06T01:48:29.551Z,1010.35
2023-01-06T01:49:29.545Z,1010.33
2023-01-06T01:50:29.454Z,1010.29
2023-01-06T01:51:29.477Z,1010.33
2023-01-06T01:52:29.516Z,1010.29
2023-01-06T01:53:29.460Z,1010.31
2023-01-06T01:54:29.460Z,1010.31
2023-01-06T01:55:29.458Z,1010.26
2023-01-06T01:56:29.431Z,1010.35
2023-01-06T01:57:29.502Z,1010.32
2023-01-06T01:58:29.513Z,1010.35
2023-01-06T01:59:29.433Z,1010.38
2023-01-06T02:00:29.402Z,1010.33
2023-01-06T02:01:29.507Z,1010.29
2023-01-06T02:02:29.462Z,1010.33
2023-01-06T02:03:29.370Z,1010.25
2023-01-06T02:04:29.348Z,1010.31
2023-01-06T02:05:29.300Z,1010.34
2023-01-06T02:06:29.289Z,1010.29
2023-01-06T02:07:29.251Z,1010.31
2023-01-06T02:08:29.270Z,1010.29
2023-01-06T02:09:29.257Z,1010.30
2023-01-06T02:10:29.258Z,1010.25
2023-01-06T02:11:29.226Z,1010.24
2023-01-06T02:12:29.229Z,1010.23
2023-01-06T02:13:29.211Z,1010.22
2023-01-06T02:14:29.203Z,1010.19
2023-01-06T02:15:29.255Z,1010.27
2023-01-06T02:16:29.163Z,1010.18
2023-01-06T02:17:29.166Z,1010.12
2023-01-06T02:18:29.151Z,1010.19
2023-01-06T02:19:29.132Z,1010.23
2023-01-06T02:20:29.129Z,1010.21
2023-01-06T02:21:29.589Z,1010.24
2023-01-06T02:22:29.085Z,1010.23
2023-01-06T02:23:29.086Z,1010.21
2023-01-06T02:24:29.105Z,1010.24
2023-01-06T02:25:29.075Z,1010.17
2023-01-06T02:26:29.117Z,1010.11
2023-01-06T02:27:29.071Z,1010.06
2023-01-06T02:28:29.054Z,1010.08
2023-01-06T02:29:29.015Z,1010.11
2023-01-06T02:30:29.015Z,1010.09
2023-01-06T02:31:29.085Z,1010.05
2023-01-06T02:32:29.052Z,1010.03
2023-01-06T02:33:28.985Z,1009.99
2023-01-06T02:34:28.954Z,1009.97
2023-01-06T02:35:28.976Z,1009.93
2023-01-06T02:36:28.944Z,1009.93
2023-01-06T02:37:28.937Z,1009.93
2023-01-06T02:38:28.992Z,1009.93
2023-01-06T02:39:28.895Z,1009.88
2023-01-06T02:40:28.917Z,1009.89
2023-01-06T02:41:29.535Z,1009.89
2023-01-06T02:42:28.875Z,1009.83
2023-01-06T02:43:28.900Z,1009.86
2023-01-06T02:44:28.847Z,1009.89
2023-01-06T02:45:28.836Z,1009.84
2023-01-06T02:46:28.906Z,1009.88
2023-01-06T02:47:28.812Z,1009.82
2023-01-06T02:48:28.830Z,1009.91
2023-01-06T02:49:28.861Z,1009.94
2023-01-06T02:50:28.795Z,1009.97
2023-01-06T02:51:28.760Z,1009.96
2023-01-06T02:52:28.760Z,1009.95
2023-01-06T02:53:28.773Z,1009.96
2023-01-06T02:54:28.773Z,1009.95
2023-01-06T02:55:28.737Z,1009.91
2023-01-06T02:56:28.720Z,1009.87
2023-01-06T02:57:28.696Z,1009.91
2023-01-06T02:58:28.696Z,1009.86
2023-01-06T02:59:28.720Z,1009.87
2023-01-06T03:00:28.684Z,1009.83
2023-01-06T03:01:28.821Z,1009.82
2023-01-06T03:02:28.722Z,1009.90
2023-01-06T03:03:28.630Z,1009.81
2023-01-06T03:04:28.658Z,1009.79
2023-01-06T03:05:28.639Z,1009.76
2023-01-06T03:06:28.608Z,1009.75
2023-01-06T03:07:28.604Z,1009.77
2023-01-06T03:08:28.606Z,1009.71
2023-01-06T03:09:28.601Z,1009.73
2023-01-06T03:10:28.584Z,1009.74
2023-01-06T03:11:28.563Z,1009.70
2023-01-06T03:12:28.535Z,1009.70
2023-01-06T03:13:28.549Z,1009.65
2023-01-06T03:14:28.520Z,1009.67
2023-01-06T03:15:28.519Z,1009.66
2023-01-06T03:16:28.500Z,1009.64
2023-01-06T03:17:28.465Z,1009.60
2023-01-06T03:18:28.455Z,1009.63
2023-01-06T03:19:28.463Z,1009.65
2023-01-06T03:20:28.454Z,1009.61
2023-01-06T03:21:28.435Z,1009.62
2023-01-06T03:22:28.413Z,1009.56
2023-01-06T03:23:28.399Z,1009.61
2023-01-06T03:24:28.404Z,1009.59
2023-01-06T03:25:28.403Z,1009.52
2023-01-06T03:26:28.360Z,1009.57
2023-01-06T03:27:28.392Z,1009.55
2023-01-06T03:28:28.340Z,1009.54
2023-01-06T03:29:28.344Z,1009.54
2023-01-06T03:30:28.386Z,1009.57
2023-01-06T03:31:28.391Z,1009.48
2023-01-06T03:32:28.303Z,1009.53
2023-01-06T03:33:28.297Z,1009.46
2023-01-06T03:34:28.268Z,1009.48
2023-01-06T03:35:28.322Z,1009.52
2023-01-06T03:36:28.282Z,1009.46
2023-01-06T03:37:28.256Z,1009.48
2023-01-06T03:38:28.258Z,1009.45
2023-01-06T03:39:28.242Z,1009.48
2023-01-06T03:40:28.274Z,1009.48
2023-01-06T03:41:28.202Z,1009.41
2023-01-06T03:42:36.164Z,1009.41
2023-01-06T03:43:28.190Z,1009.46
2023-01-06T03:44:28.192Z,1009.39
2023-01-06T03:45:28.192Z,1009.41
2023-01-06T03:46:28.190Z,1009.44
2023-01-06T03:47:28.140Z,1009.41
2023-01-06T03:48:28.168Z,1009.39
2023-01-06T03:49:28.140Z,1009.36
2023-01-06T03:50:28.129Z,1009.42
2023-01-06T03:51:28.126Z,1009.41
2023-01-06T03:52:28.072Z,1009.42
2023-01-06T03:53:28.095Z,1009.39
2023-01-06T03:54:28.092Z,1009.36
2023-01-06T03:55:28.045Z,1009.35
2023-01-06T03:56:28.062Z,1009.32
2023-01-06T03:57:28.035Z,1009.31
2023-01-06T03:58:28.036Z,1009.37
2023-01-06T03:59:28.672Z,1009.27
2023-01-06T04:00:27.994Z,1009.22
2023-01-06T04:01:27.994Z,1009.33
2023-01-06T04:02:27.978Z,1009.32
2023-01-06T04:03:27.992Z,1009.27
2023-01-06T04:04:27.994Z,1009.25
2023-01-06T04:05:27.946Z,1009.24
2023-01-06T04:06:27.928Z,1009.22
2023-01-06T04:07:27.908Z,1009.21
2023-01-06T04:08:27.906Z,1009.21
2023-01-06T04:09:27.885Z,1009.19
2023-01-06T04:10:27.945Z,1009.15
2023-01-06T04:11:27.862Z,1009.18
2023-01-06T04:12:27.874Z,1009.08
2023-01-06T04:13:27.838Z,1009.11
2023-01-06T04:14:27.887Z,1009.13
2023-01-06T04:15:27.847Z,1009.16
2023-01-06T04:16:27.971Z,1009.14
2023-01-06T04:17:27.785Z,1009.16
2023-01-06T04:18:27.818Z,1009.11
2023-01-06T04:19:27.770Z,1009.04
2023-01-06T04:20:27.760Z,1009.04
2023-01-06T04:21:27.748Z,1009.10
2023-01-06T04:22:27.794Z,1009.10
2023-01-06T04:23:27.735Z,1009.09
2023-01-06T04:24:27.712Z,1009.02
2023-01-06T04:25:27.713Z,1009.03
2023-01-06T04:26:27.699Z,1008.95
2023-01-06T04:27:27.717Z,1008.94
2023-01-06T04:28:27.726Z,1008.96
2023-01-06T04:29:27.662Z,1008.98
2023-01-06T04:30:27.675Z,1008.99
2023-01-06T04:31:27.654Z,1008.94
2023-01-06T04:32:27.626Z,1008.94
2023-01-06T04:33:27.610Z,1008.96
2023-01-06T04:34:27.619Z,1008.96
2023-01-06T04:35:27.600Z,1008.96
2023-01-06T04:36:27.593Z,1008.92
2023-01-06T04:37:27.594Z,1008.90
2023-01-06T04:38:27.554Z,1008.92
2023-01-06T04:39:27.578Z,1008.89
2023-01-06T04:40:27.559Z,1008.81
2023-01-06T04:41:27.520Z,1008.91
2023-01-06T04:42:27.510Z,1008.81
2023-01-06T04:43:27.519Z,1008.84
2023-01-06T04:44:27.496Z,1008.85
2023-01-06T04:45:27.556Z,1008.84
2023-01-06T04:46:27.531Z,1008.81
2023-01-06T04:47:27.450Z,1008.86
2023-01-06T04:48:27.457Z,1008.88
2023-01-06T04:49:27.464Z,1008.82
2023-01-06T04:50:27.438Z,1008.76
2023-01-06T04:51:27.447Z,1008.75
2023-01-06T04:52:27.409Z,1008.70
2023-01-06T04:53:27.401Z,1008.73
2023-01-06T04:54:27.373Z,1008.62
2023-01-06T04:55:27.355Z,1008.70
2023-01-06T04:56:27.357Z,1008.67
2023-01-06T04:57:27.376Z,1008.68
2023-01-06T04:58:27.345Z,1008.63
2023-01-06T04:59:27.359Z,1008.64
2023-01-06T05:00:27.305Z,1008.59
2023-01-06T05:01:27.416Z,1008.58
2023-01-06T05:02:27.366Z,1008.59
2023-01-06T05:03:27.403Z,1008.56
2023-01-06T05:04:30.158Z,1008.55
2023-01-06T05:05:27.271Z,1008.52
2023-01-06T05:06:27.268Z,1008.48
2023-01-06T05:07:27.223Z,1008.52
2023-01-06T05:08:27.243Z,1008.52
2023-01-06T05:09:27.250Z,1008.48
2023-01-06T05:10:27.193Z,1008.54
2023-01-06T05:11:27.202Z,1008.53
2023-01-06T05:12:27.221Z,1008.54
2023-01-06T05:13:27.191Z,1008.53
2023-01-06T05:14:27.199Z,1008.53
2023-01-06T05:15:27.168Z,1008.51
2023-01-06T05:16:27.183Z,1008.49
2023-01-06T05:17:27.131Z,1008.51
2023-01-06T05:18:27.120Z,1008.44
2023-01-06T05:19:27.125Z,1008.45
2023-01-06T05:20:27.079Z,1008.45
2023-01-06T05:21:27.092Z,1008.41
2023-01-06T05:22:27.063Z,1008.40
2023-01-06T05:23:27.065Z,1008.40
2023-01-06T05:24:27.088Z,1008.40
2023-01-06T05:25:27.040Z,1008.40
2023-01-06T05:26:27.027Z,1008.36
2023-01-06T05:27:27.018Z,1008.41
2023-01-06T05:28:27.030Z,1008.43
2023-01-06T05:29:27.047Z,1008.52
2023-01-06T05:30:27.019Z,1008.54
2023-01-06T05:31:27.015Z,1008.59
2023-01-06T05:32:26.946Z,1008.52
2023-01-06T05:33:26.936Z,1008.44
2023-01-06T05:34:26.925Z,1008.41
2023-01-06T05:35:26.969Z,1008.42
2023-01-06T05:36:26.903Z,1008.33
2023-01-06T05:37:26.916Z,1008.35
2023-01-06T05:38:26.918Z,1008.37
2023-01-06T05:39:26.860Z,1008.38
2023-01-06T05:40:26.869Z,1008.38
2023-01-06T05:41:26.876Z,1008.39
2023-01-06T05:42:26.854Z,1008.37
2023-01-06T05:43:26.835Z,1008.40
2023-01-06T05:44:26.806Z,1008.37
2023-01-06T05:45:26.843Z,1008.36
2023-01-06T05:46:26.800Z,1008.35
2023-01-06T05:47:26.795Z,1008.40
2023-01-06T05:48:26.793Z,1008.33
2023-01-06T05:49:26.752Z,1008.33
2023-01-06T05:50:26.754Z,1008.33
2023-01-06T05:51:26.769Z,1008.39
2023-01-06T05:52:26.714Z,1008.33
2023-01-06T05:53:26.740Z,1008.34
2023-01-06T05:54:26.712Z,1008.37
2023-01-06T05:55:26.687Z,1008.41
2023-01-06T05:56:26.682Z,1008.41
2023-01-06T05:57:26.698Z,1008.44
2023-01-06T05:58:26.674Z,1008.47
2023-01-06T05:59:26.641Z,1008.43
2023-01-06T06:00:26.652Z,1008.46
2023-01-06T06:01:26.654Z,1008.40
2023-01-06T06:02:26.652Z,1008.39
2023-01-06T06:03:26.670Z,1008.38
2023-01-06T06:04:26.598Z,1008.35
2023-01-06T06:05:26.623Z,1008.40
2023-01-06T06:06:26.555Z,1008.39
2023-01-06T06:07:26.552Z,1008.36
2023-01-06T06:08:26.567Z,1008.42
2023-01-06T06:09:26.571Z,1008.52
2023-01-06T06:10:26.530Z,1008.45
2023-01-06T06:11:26.514Z,1008.43
2023-01-06T06:12:26.488Z,1008.50
2023-01-06T06:13:26.494Z,1008.43
2023-01-06T06:14:26.719Z,1008.46
2023-01-06T06:15:26.454Z,1008.41
2023-01-06T06:16:26.485Z,1008.35
2023-01-06T06:17:26.473Z,1008.36
2023-01-06T06:18:26.440Z,1008.32
2023-01-06T06:19:26.442Z,1008.28
2023-01-06T06:20:26.422Z,1008.27
2023-01-06T06:21:26.408Z,1008.24
2023-01-06T06:22:26.407Z,1008.28
2023-01-06T06:23:26.409Z,1008.22
2023-01-06T06:24:26.391Z,1008.25
2023-01-06T06:25:26.338Z,1008.25
2023-01-06T06:26:26.329Z,1008.24
2023-01-06T06:27:26.325Z,1008.35
2023-01-06T06:28:26.324Z,1008.33
2023-01-06T06:29:26.299Z,1008.32
2023-01-06T06:30:26.777Z,1008.33
2023-01-06T06:31:26.414Z,1008.29
2023-01-06T06:32:26.295Z,1008.26
2023-01-06T06:33:26.282Z,1008.30
2023-01-06T06:34:26.238Z,1008.27
2023-01-06T06:35:26.234Z,1008.24
2023-01-06T06:36:26.260Z,1008.21
2023-01-06T06:37:26.223Z,1008.30
2023-01-06T06:38:26.246Z,1008.27
2023-01-06T06:39:26.193Z,1008.20
2023-01-06T06:40:26.168Z,1008.21
2023-01-06T06:41:26.203Z,1008.22
2023-01-06T06:42:26.149Z,1008.23
2023-01-06T06:43:26.151Z,1008.30
2023-01-06T06:44:26.129Z,1008.26
2023-01-06T06:45:26.131Z,1008.24
2023-01-06T06:46:26.103Z,1008.22
2023-01-06T06:47:26.123Z,1008.30
2023-01-06T06:48:26.079Z,1008.21
2023-01-06T06:49:26.079Z,1008.24
2023-01-06T06:50:26.061Z,1008.27
2023-01-06T06:51:26.129Z,1008.25
2023-01-06T06:52:26.032Z,1008.28
2023-01-06T06:53:26.061Z,1008.34
2023-01-06T06:54:26.014Z,1008.29
2023-01-06T06:55:26.022Z,1008.26
2023-01-06T06:56:26.002Z,1008.28
2023-01-06T06:57:26.004Z,1008.31
2023-01-06T06:58:25.994Z,1008.33
2023-01-06T06:59:25.982Z,1008.28
2023-01-06T07:00:25.957Z,1008.27
2023-01-06T07:01:26.014Z,1008.25
2023-01-06T07:02:25.935Z,1008.16
2023-01-06T07:03:25.915Z,1008.13
2023-01-06T07:04:25.981Z,1008.15
2023-01-06T07:05:25.880Z,1008.14
2023-01-06T07:06:27.971Z,1008.14
2023-01-06T07:07:25.875Z,1008.10
2023-01-06T07:08:25.887Z,1008.06
2023-01-06T07:09:25.889Z,1008.04
2023-01-06T07:10:25.845Z,1007.96
2023-01-06T07:11:25.839Z,1008.00
2023-01-06T07:12:25.819Z,1007.99
2023-01-06T07:13:25.802Z,1007.98
2023-01-06T07:14:25.833Z,1007.99
2023-01-06T07:15:25.794Z,1007.96
2023-01-06T07:16:25.771Z,1007.90
2023-01-06T07:17:25.750Z,1007.91
2023-01-06T07:18:25.762Z,1007.90
2023-01-06T07:19:25.742Z,1007.91
2023-01-06T07:20:25.776Z,1007.84
2023-01-06T07:21:25.718Z,1007.87
2023-01-06T07:22:25.703Z,1007.87
2023-01-06T07:23:25.700Z,1007.80
2023-01-06T07:24:25.686Z,1007.82
2023-01-06T07:25:25.680Z,1007.85
2023-01-06T07:26:25.676Z,1007.82
2023-01-06T07:27:25.638Z,1007.77
2023-01-06T07:28:25.661Z,1007.80
2023-01-06T07:29:25.630Z,1007.80
2023-01-06T07:30:25.645Z,1007.81
2023-01-06T07:31:25.652Z,1007.84
2023-01-06T07:32:25.590Z,1007.80
2023-01-06T07:33:25.598Z,1007.77
2023-01-06T07:34:25.579Z,1007.82
2023-01-06T07:35:25.593Z,1007.81
2023-01-06T07:36:25.569Z,1007.88
2023-01-06T07:37:25.535Z,1007.90
2023-01-06T07:38:25.512Z,1007.86
2023-01-06T07:39:25.520Z,1007.83
2023-01-06T07:40:25.500Z,1007.80
2023-01-06T07:41:25.495Z,1007.79
2023-01-06T07:42:25.491Z,1007.87
2023-01-06T07:43:25.470Z,1007.92
2023-01-06T07:44:25.496Z,1007.82
2023-01-06T07:45:25.453Z,1007.80
2023-01-06T07:46:25.510Z,1007.83
2023-01-06T07:47:25.427Z,1007.81
2023-01-06T07:48:25.450Z,1007.80
2023-01-06T07:49:25.404Z,1007.77
2023-01-06T07:50:26.439Z,1007.83
2023-01-06T07:51:25.406Z,1007.82
2023-01-06T07:52:25.475Z,1007.80
2023-01-06T07:53:25.484Z,1007.74
2023-01-06T07:54:25.346Z,1007.88
2023-01-06T07:55:25.337Z,1007.92
2023-01-06T07:56:25.306Z,1007.96
2023-01-06T07:57:25.300Z,1007.95
2023-01-06T07:58:25.427Z,1007.85
2023-01-06T07:59:25.297Z,1007.87
2023-01-06T08:00:25.260Z,1007.97
2023-01-06T08:01:25.352Z,1007.94
2023-01-06T08:02:25.397Z,1007.88
2023-01-06T08:03:25.430Z,1007.93
2023-01-06T08:04:25.346Z,1007.93
2023-01-06T08:05:25.222Z,1007.93
2023-01-06T08:06:25.216Z,1007.87
2023-01-06T08:07:25.210Z,1007.91
2023-01-06T08:08:25.227Z,1007.91
2023-01-06T08:09:25.248Z,1007.90
2023-01-06T08:10:25.244Z,1007.94
2023-01-06T08:11:25.220Z,1008.04
2023-01-06T08:12:25.141Z,1007.95
2023-01-06T08:13:25.204Z,1008.02
2023-01-06T08:14:25.258Z,1007.95
2023-01-06T08:15:25.141Z,1007.97
2023-01-06T08:16:25.109Z,1007.85
2023-01-06T08:17:25.081Z,1008.02
2023-01-06T08:18:25.054Z,1007.97
2023-01-06T08:19:25.138Z,1008.00
2023-01-06T08:20:25.211Z,1008.02
2023-01-06T08:21:25.063Z,1008.05
2023-01-06T08:22:25.008Z,1008.06
2023-01-06T08:23:25.094Z,1008.03
2023-01-06T08:24:25.011Z,1007.94
2023-01-06T08:25:25.026Z,1008.12
2023-01-06T08:26:25.064Z,1008.03
2023-01-06T08:27:25.005Z,1008.10
2023-01-06T08:28:25.045Z,1008.07
2023-01-06T08:29:24.969Z,1008.00
2023-01-06T08:30:24.933Z,1008.15
2023-01-06T08:31:24.972Z,1008.21
2023-01-06T08:32:24.953Z,1008.19
2023-01-06T08:33:24.907Z,1008.29
2023-01-06T08:34:24.884Z,1008.26
2023-01-06T08:35:24.912Z,1008.28
2023-01-06T08:36:24.853Z,1008.25
2023-01-06T08:37:24.905Z,1008.36
2023-01-06T08:38:24.849Z,1008.24
2023-01-06T08:39:24.874Z,1008.39
2023-01-06T08:40:25.812Z,1008.36
2023-01-06T08:41:24.875Z,1008.23
2023-01-06T08:42:24.800Z,1008.25
2023-01-06T08:43:24.827Z,1008.26
2023-01-06T08:44:24.775Z,1008.34
2023-01-06T08:45:24.757Z,1008.34
2023-01-06T08:46:24.819Z,1008.43
2023-01-06T08:47:24.758Z,1008.42
2023-01-06T08:48:24.721Z,1008.44
2023-01-06T08:49:24.783Z,1008.42
2023-01-06T08:50:26.543Z,1008.54
2023-01-06T08:51:24.707Z,1008.44
2023-01-06T08:52:24.731Z,1008.49
2023-01-06T08:53:24.671Z,1008.44
2023-01-06T08:54:24.651Z,1008.45
2023-01-06T08:55:24.685Z,1008.43
2023-01-06T08:56:24.635Z,1008.51
2023-01-06T08:57:24.631Z,1008.44
2023-01-06T08:58:24.612Z,1008.41
2023-01-06T08:59:24.612Z,1008.43
2023-01-06T09:00:24.657Z,1008.42
2023-01-06T09:01:24.703Z,1008.34
2023-01-06T09:02:24.638Z,1008.37
2023-01-06T09:03:24.583Z,1008.45
2023-01-06T09:04:24.549Z,1008.48
2023-01-06T09:05:24.545Z,1008.47
2023-01-06T09:06:24.515Z,1008.51
2023-01-06T09:07:24.505Z,1008.61
2023-01-06T09:08:24.512Z,1008.57
2023-01-06T09:09:24.507Z,1008.59
2023-01-06T09:10:24.518Z,1008.56
2023-01-06T09:11:24.455Z,1008.57
2023-01-06T09:12:24.458Z,1008.58
2023-01-06T09:13:24.443Z,1008.67
2023-01-06T09:14:24.462Z,1008.66
2023-01-06T09:15:24.436Z,1008.73
2023-01-06T09:16:24.551Z,1008.80
2023-01-06T09:17:24.419Z,1008.75
2023-01-06T09:18:24.435Z,1008.74
2023-01-06T09:19:24.384Z,1008.72
2023-01-06T09:20:24.363Z,1008.75
2023-01-06T09:21:24.401Z,1008.74
2023-01-06T09:22:24.362Z,1008.79
2023-01-06T09:23:24.326Z,1008.67
2023-01-06T09:24:24.358Z,1008.79
2023-01-06T09:25:24.324Z,1008.74
2023-01-06T09:26:24.354Z,1008.73
2023-01-06T09:27:24.301Z,1008.83
2023-01-06T09:28:24.274Z,1008.85
2023-01-06T09:29:24.254Z,1008.89
2023-01-06T09:30:24.250Z,1008.90
2023-01-06T09:31:24.342Z,1008.92
2023-01-06T09:32:24.259Z,1008.85
2023-01-06T09:33:26.303Z,1008.87
2023-01-06T09:34:24.261Z,1008.89
2023-01-06T09:35:24.197Z,1008.84
2023-01-06T09:36:24.200Z,1008.86
2023-01-06T09:37:24.295Z,1009.00
2023-01-06T09:38:24.168Z,1008.89
2023-01-06T09:39:24.140Z,1008.86
2023-01-06T09:40:24.171Z,1008.82
2023-01-06T09:41:24.130Z,1008.92
2023-01-06T09:42:24.133Z,1008.93
2023-01-06T09:43:24.143Z,1008.98
2023-01-06T09:44:24.818Z,1009.03
2023-01-06T09:45:24.074Z,1009.00
2023-01-06T09:46:24.318Z,1009.02
2023-01-06T09:47:24.059Z,1009.03
2023-01-06T09:48:24.060Z,1009.05
2023-01-06T09:49:24.052Z,1009.08
2023-01-06T09:50:24.024Z,1009.17
2023-01-06T09:51:24.009Z,1009.09
2023-01-06T09:52:24.009Z,1009.13
2023-01-06T09:53:24.005Z,1009.13
2023-01-06T09:54:23.994Z,1009.18
2023-01-06T09:55:23.969Z,1009.19
2023-01-06T09:56:23.954Z,1009.22
2023-01-06T09:57:23.933Z,1009.16
2023-01-06T09:58:23.932Z,1009.16
2023-01-06T09:59:23.945Z,1009.20
2023-01-06T10:00:23.904Z,1009.22
2023-01-06T10:01:23.999Z,1009.23
2023-01-06T10:02:23.964Z,1009.17
2023-01-06T10:03:23.866Z,1009.19
2023-01-06T10:04:23.905Z,1009.20
2023-01-06T10:05:23.847Z,1009.13
2023-01-06T10:06:23.975Z,1009.25
2023-01-06T10:07:23.835Z,1009.18
2023-01-06T10:08:23.833Z,1009.26
2023-01-06T10:09:23.816Z,1009.29
2023-01-06T10:10:23.828Z,1009.30
2023-01-06T10:11:23.827Z,1009.18
2023-01-06T10:12:23.775Z,1009.26
2023-01-06T10:13:23.749Z,1009.17
2023-01-06T10:14:23.754Z,1009.13
2023-01-06T10:15:23.733Z,1009.09
2023-01-06T10:16:23.809Z,1009.08
2023-01-06T10:17:23.708Z,1009.11
2023-01-06T10:18:23.703Z,1009.05
2023-01-06T10:19:23.724Z,1009.08
2023-01-06T10:20:23.690Z,1009.01
2023-01-06T10:21:23.688Z,1009.11
2023-01-06T10:22:23.654Z,1009.13
2023-01-06T10:23:23.640Z,1009.12
2023-01-06T10:24:23.652Z,1009.18
2023-01-06T10:25:23.629Z,1009.19
2023-01-06T10:26:23.643Z,1009.20
2023-01-06T10:27:23.961Z,1009.21
2023-01-06T10:28:23.601Z,1009.21
2023-01-06T10:29:23.628Z,1009.26
2023-01-06T10:30:24.907Z,1009.26
2023-01-06T10:31:23.633Z,1009.27
2023-01-06T10:32:23.579Z,1009.23
2023-01-06T10:33:23.528Z,1009.32
2023-01-06T10:34:23.527Z,1009.31
2023-01-06T10:35:23.596Z,1009.40
2023-01-06T10:36:23.523Z,1009.34
2023-01-06T10:37:23.505Z,1009.30
2023-01-06T10:38:23.475Z,1009.28
2023-01-06T10:39:23.464Z,1009.29
2023-01-06T10:40:23.522Z,1009.25
2023-01-06T10:41:23.502Z,1009.24
2023-01-06T10:42:23.557Z,1009.29
2023-01-06T10:43:23.547Z,1009.36
2023-01-06T10:44:23.439Z,1009.35
2023-01-06T10:45:23.706Z,1009.42
2023-01-06T10:46:23.485Z,1009.45
2023-01-06T10:47:23.377Z,1009.39
2023-01-06T10:48:23.361Z,1009.43
2023-01-06T10:49:23.375Z,1009.44
2023-01-06T10:50:23.390Z,1009.47
2023-01-06T10:51:23.449Z,1009.45
2023-01-06T10:52:23.321Z,1009.53
2023-01-06T10:53:23.337Z,1009.51
2023-01-06T10:54:23.352Z,1009.48
2023-01-06T10:55:23.374Z,1009.50
2023-01-06T10:56:23.398Z,1009.52
2023-01-06T10:57:23.257Z,1009.51
2023-01-06T10:58:23.254Z,1009.51
2023-01-06T10:59:23.240Z,1009.42
2023-01-06T11:00:23.237Z,1009.43
2023-01-06T11:01:23.583Z,1009.41
2023-01-06T11:02:23.484Z,1009.40
2023-01-06T11:03:33.377Z,1009.44
2023-01-06T11:04:23.201Z,1009.42
2023-01-06T11:05:23.237Z,1009.41
2023-01-06T11:06:23.195Z,1009.43
2023-01-06T11:07:23.191Z,1009.46
2023-01-06T11:08:23.135Z,1009.47
2023-01-06T11:09:23.152Z,1009.45
2023-01-06T11:10:23.111Z,1009.45
2023-01-06T11:11:28.096Z,1009.47
2023-01-06T11:12:23.113Z,1009.49
2023-01-06T11:13:23.130Z,1009.47
2023-01-06T11:14:23.134Z,1009.49
2023-01-06T11:15:23.046Z,1009.45
2023-01-06T11:16:23.121Z,1009.45
2023-01-06T11:17:23.125Z,1009.41
2023-01-06T11:18:23.053Z,1009.39
2023-01-06T11:19:23.071Z,1009.34
2023-01-06T11:20:22.996Z,1009.33
2023-01-06T11:21:23.107Z,1009.36
2023-01-06T11:22:23.050Z,1009.36
2023-01-06T11:23:22.997Z,1009.32
2023-01-06T11:24:22.961Z,1009.32
2023-01-06T11:25:22.998Z,1009.31
2023-01-06T11:26:23.018Z,1009.43
2023-01-06T11:27:23.015Z,1009.33
2023-01-06T11:28:22.947Z,1009.28
2023-01-06T11:29:22.892Z,1009.31
2023-01-06T11:30:22.957Z,1009.33
2023-01-06T11:31:22.952Z,1009.36
2023-01-06T11:32:22.974Z,1009.34
2023-01-06T11:33:22.870Z,1009.35
2023-01-06T11:34:22.880Z,1009.37
2023-01-06T11:35:22.820Z,1009.38
2023-01-06T11:36:22.844Z,1009.43
2023-01-06T11:37:22.832Z,1009.42
2023-01-06T11:38:22.784Z,1009.34
2023-01-06T11:39:22.775Z,1009.39
2023-01-06T11:40:22.767Z,1009.42
2023-01-06T11:41:22.778Z,1009.54
2023-01-06T11:42:22.795Z,1009.47
2023-01-06T11:43:22.774Z,1009.46
2023-01-06T11:44:22.716Z,1009.44
2023-01-06T11:45:22.715Z,1009.43
2023-01-06T11:46:22.734Z,1009.42
2023-01-06T11:47:22.708Z,1009.42
2023-01-06T11:48:22.669Z,1009.48
2023-01-06T11:49:22.656Z,1009.43
2023-01-06T11:50:22.745Z,1009.44
2023-01-06T11:51:22.753Z,1009.37
2023-01-06T11:52:22.673Z,1009.41
2023-01-06T11:53:22.625Z,1009.41
2023-01-06T11:54:22.610Z,1009.40
2023-01-06T11:55:22.598Z,1009.39
2023-01-06T11:56:22.600Z,1009.40
2023-01-06T11:57:22.571Z,1009.38
2023-01-06T11:58:22.564Z,1009.42
2023-01-06T11:59:22.540Z,1009.35
2023-01-06T12:00:22.550Z,1009.42
2023-01-06T12:01:22.607Z,1009.38
2023-01-06T12:02:22.610Z,1009.41
2023-01-06T12:03:22.525Z,1009.40
2023-01-06T12:04:22.492Z,1009.44
2023-01-06T12:05:22.478Z,1009.40